Aviation Digital Data Service (ADDS)

Output produced by METARs form (1801 UTC 19 October 2017)
found at http://www.aviationweather.gov/adds/metars/
 
SUCA 191800Z 20004KT CAVOK 17/07 Q1016
SUCA TAF 191730Z 1918/2018 20015KT CAVOK TX22/2018Z TN10/2010Z 
     BECMG 2000/2002 12006KT 
     BECMG 2008/2012 06010KT
       
SUDU 191700Z 16015KT 9999 FEW026 20/12 Q1016
SUDU TAF 191730Z 1918/2018 20015KT CAVOK TX22/2018Z TN10/2010Z 
     BECMG 2000/2002 12006KT 
     BECMG 2008/2012 06010KT
       
SUMU 191800Z 21013KT CAVOK 17/06 Q1017 NOSIG
SUMU TAF 191730Z 1918/2018 20015KT CAVOK TX22/2018Z TN10/2010Z 
     BECMG 2000/2002 12006KT 
     BECMG 2008/2012 06010KT
       
SUAA 191800Z 21015KT CAVOK 17/07 Q1017
SUAA TAF 191730Z 1918/2018 20015KT CAVOK TX22/2018Z TN10/2010Z 
     BECMG 2000/2002 12006KT 
     BECMG 2008/2012 06010KT
       
SULS 191800Z 20016KT CAVOK 17/06 Q1016
SULS TAF 191730Z 1918/2018 20015KT CAVOK TX22/2018Z TN10/2010Z 
     BECMG 2000/2002 12006KT 
     BECMG 2008/2012 06010KT
       
SURV TAF 191730Z 1918/2018 17015KT 9999 BKN020 TX24/2018Z TN11/2010Z 
     BECMG 2000/2002 11010KT
       
SUSO 191800Z 18008KT 9999 BKN027 23/13 Q1016
SUSO TAF 191730Z 1918/2018 17015KT 9999 BKN020 TX24/2018Z TN11/2010Z 
     BECMG 2000/2002 11010KT